Accueil
METAR-TAF:

METAR-TAF

Aéroports :

Pembrey, Pays de Galles

latitude: 51-43N, longitude: 004-22W, altitude: 3 m

Observation

Le bulletin a été fait il y a 24 minutes, à 09:50 UTC
Vent 13 kt de ouest
Température 9°C
Humidité 81%
Pression 1018 hPa
Visibilité 10 km ou plus
Nuages épars à une hauteur de 1600 ft
Nuages fragmentés à une hauteur de 2800 ft

METAR: EGOP 280950Z 28013KT 9999 SCT016 BKN028 09/06 Q1018 WHT

Heure: 11:14 (10:14 UTC)


TAF: absent

Observations et prévisions météorologiques de plus de 4000 aéroports (messages METAR et TAF).

Les stations disponibles sont représentées par des disques jaunes et rouges sur la carte.

Passer la souris dessus pour voir le nom de la station.

Cliquer dessus pour voir les observations et prévisions météorologiques.

Pour changer de carte: cliquez sur les boutons verts avec une croix noire pour zoomer, sur le bouton vert avec un tiret pour effectuer un zoom arrière, ou sur les flèches vertes pour les cartes adjacentes.


METAR-TAF: